Map

Track Data

SID SEASON NUMBER BASIN SUBBASIN NAME ISO_TIME NATURE LAT LON WMO_WIND WMO_PRES WMO_AGENCY TRACK_TYPE DIST2LAND LANDFALL IFLAG USA_AGENCY USA_ATCF_ID USA_LAT USA_LON USA_RECORD USA_STATUS USA_WIND USA_PRES USA_SSHS USA_R34_NE USA_R34_SE USA_R34_SW USA_R34_NW USA_R50_NE USA_R50_SE USA_R50_SW USA_R50_NW USA_R64_NE USA_R64_SE USA_R64_SW USA_R64_NW USA_POCI USA_ROCI USA_RMW USA_EYE TOKYO_LAT TOKYO_LON TOKYO_GRADE TOKYO_WIND TOKYO_PRES TOKYO_R50_DIR TOKYO_R50_LONG TOKYO_R50_SHORT TOKYO_R30_DIR TOKYO_R30_LONG TOKYO_R30_SHORT TOKYO_LAND CMA_LAT CMA_LON CMA_CAT CMA_WIND CMA_PRES HKO_LAT HKO_LON HKO_CAT HKO_WIND HKO_PRES NEWDELHI_LAT NEWDELHI_LON NEWDELHI_GRADE NEWDELHI_WIND NEWDELHI_PRES NEWDELHI_CI NEWDELHI_DP NEWDELHI_POCI REUNION_LAT REUNION_LON REUNION_TYPE REUNION_WIND REUNION_PRES REUNION_TNUM REUNION_CI REUNION_RMW REUNION_R34_NE REUNION_R34_SE REUNION_R34_SW REUNION_R34_NW REUNION_R50_NE REUNION_R50_SE REUNION_R50_SW REUNION_R50_NW REUNION_R64_NE REUNION_R64_SE REUNION_R64_SW REUNION_R64_NW BOM_LAT BOM_LON BOM_TYPE BOM_WIND BOM_PRES BOM_TNUM BOM_CI BOM_RMW BOM_R34_NE BOM_R34_SE BOM_R34_SW BOM_R34_NW BOM_R50_NE BOM_R50_SE BOM_R50_SW BOM_R50_NW BOM_R64_NE BOM_R64_SE BOM_R64_SW BOM_R64_NW BOM_ROCI BOM_POCI BOM_EYE BOM_POS_METHOD BOM_PRES_METHOD NADI_LAT NADI_LON NADI_CAT NADI_WIND NADI_PRES WELLINGTON_LAT WELLINGTON_LON WELLINGTON_WIND WELLINGTON_PRES DS824_LAT DS824_LON DS824_STAGE DS824_WIND DS824_PRES TD9636_LAT TD9636_LON TD9636_STAGE TD9636_WIND TD9636_PRES TD9635_LAT TD9635_LON TD9635_WIND TD9635_PRES TD9635_ROCI NEUMANN_LAT NEUMANN_LON NEUMANN_CLASS NEUMANN_WIND NEUMANN_PRES MLC_LAT MLC_LON MLC_CLASS MLC_WIND MLC_PRES USA_GUST BOM_GUST BOM_GUST_PER REUNION_GUST REUNION_GUST_PER USA_SEAHGT USA_SEARAD_NE USA_SEARAD_SE USA_SEARAD_SW USA_SEARAD_NW STORM_SPEED STORM_DIR
1951272N20274 1951 74 NA CS HOW 1951-09-29 00:00:00 TS 20.2000 -85.8000 25 hurdat_atl main 132 76 O_____________ hurdat_atl AL091951 20.2000 -85.8000 TD 25 -1 12 320
1951272N20274 1951 74 NA CS HOW 1951-09-29 03:00:00 TS 20.6602 -86.2071 main 68 10 P_____________ AL091951 20.6602 -86.2071 TD 25 -1 12 320
1951272N20274 1951 74 NA CS HOW 1951-09-29 06:00:00 TS 21.1000 -86.6000 25 hurdat_atl main 10 0 O_____________ hurdat_atl AL091951 21.1000 -86.6000 TD 25 -1 11 321
1951272N20274 1951 74 NA CS HOW 1951-09-29 09:00:00 TS 21.5075 -86.9525 main 0 0 P_____________ AL091951 21.5075 -86.9525 TD 25 -1 10 325
1951272N20274 1951 74 NA GM HOW 1951-09-29 12:00:00 TS 21.9000 -87.2000 25 hurdat_atl main 45 45 O_____________ hurdat_atl AL091951 21.9000 -87.2000 TD 25 -1 9 339
1951272N20274 1951 74 NA GM HOW 1951-09-29 15:00:00 TS 22.3149 -87.2953 main 91 91 P_____________ AL091951 22.3149 -87.2953 TD 25 -1 8 354
1951272N20274 1951 74 NA GM HOW 1951-09-29 18:00:00 TS 22.7000 -87.3000 25 hurdat_atl main 135 135 O_____________ hurdat_atl AL091951 22.7000 -87.3000 TD 25 -1 7 0
1951272N20274 1951 74 NA GM HOW 1951-09-29 21:00:00 TS 23.0150 -87.3001 main 168 168 P_____________ AL091951 23.0150 -87.3001 TD 25 -1 6 1
1951272N20274 1951 74 NA GM HOW 1951-09-30 00:00:00 TS 23.3000 -87.3000 25 hurdat_atl main 202 202 O_____________ hurdat_atl AL091951 23.3000 -87.3000 TD 25 -1 6 355
1951272N20274 1951 74 NA GM HOW 1951-09-30 03:00:00 TS 23.6000 -87.3425 main 235 235 P_____________ AL091951 23.6000 -87.3425 TD 27 -1 6 352
1951272N20274 1951 74 NA GM HOW 1951-09-30 06:00:00 TS 23.9000 -87.4000 30 hurdat_atl main 270 270 O_____________ hurdat_atl AL091951 23.9000 -87.4000 TD 30 -1 6 351
1951272N20274 1951 74 NA GM HOW 1951-09-30 09:00:00 TS 24.2075 -87.4500 main 302 302 P_____________ AL091951 24.2075 -87.4500 TD 30 -1 6 352
1951272N20274 1951 74 NA GM HOW 1951-09-30 12:00:00 TS 24.5000 -87.5000 30 hurdat_atl main 335 335 O_____________ hurdat_atl AL091951 24.5000 -87.5000 TD 30 -1 6 351
1951272N20274 1951 74 NA GM HOW 1951-09-30 15:00:00 TS 24.7575 -87.5500 main 369 369 P_____________ AL091951 24.7575 -87.5500 TD 32 -1 5 350
1951272N20274 1951 74 NA GM HOW 1951-09-30 18:00:00 TS 25.0000 -87.6000 35 hurdat_atl main 391 391 O_____________ hurdat_atl AL091951 25.0000 -87.6000 TS 35 0 5 348
1951272N20274 1951 74 NA GM HOW 1951-09-30 21:00:00 TS 25.2650 -87.6649 main 424 414 P_____________ AL091951 25.2650 -87.6649 TS 35 0 5 350
1951272N20274 1951 74 NA GM HOW 1951-10-01 00:00:00 TS 25.5000 -87.7000 35 hurdat_atl main 414 393 O_____________ hurdat_atl AL091951 25.5000 -87.7000 TS 35 0 4 355
1951272N20274 1951 74 NA GM HOW 1951-10-01 03:00:00 TS 25.6648 -87.7174 main 393 383 P_____________ AL091951 25.6648 -87.7174 TS 35 0 3 16
1951272N20274 1951 74 NA GM HOW 1951-10-01 06:00:00 TS 25.8000 -87.6000 35 hurdat_atl main 386 380 O_____________ hurdat_atl AL091951 25.8000 -87.6000 TS 35 0 5 55
1951272N20274 1951 74 NA GM HOW 1951-10-01 09:00:00 TS 25.9577 -87.2527 main 379 379 P_____________ AL091951 25.9577 -87.2527 TS 37 0 8 67
1951272N20274 1951 74 NA GM HOW 1951-10-01 12:00:00 TS 26.1000 -86.8000 40 1003 hurdat_atl main 395 395 O_____________ hurdat_atl AL091951 26.1000 -86.8000 TS 40 1003 0 8 71
1951272N20274 1951 74 NA GM HOW 1951-10-01 15:00:00 TS 26.2146 -86.4299 main 394 354 P_____________ AL091951 26.2146 -86.4299 TS 40 0 7 74
1951272N20274 1951 74 NA GM HOW 1951-10-01 18:00:00 TS 26.3000 -86.0000 40 hurdat_atl main 354 308 O_____________ hurdat_atl AL091951 26.3000 -86.0000 TS 40 0 9 81
1951272N20274 1951 74 NA GM HOW 1951-10-01 21:00:00 TS 26.3498 -85.4522 main 308 240 P_____________ AL091951 26.3498 -85.4522 TS 42 0 11 85
1951272N20274 1951 74 NA GM HOW 1951-10-02 00:00:00 TS 26.4000 -84.8000 45 hurdat_atl main 240 173 O_____________ hurdat_atl AL091951 26.4000 -84.8000 TS 45 0 12 83
1951272N20274 1951 74 NA GM HOW 1951-10-02 03:00:00 TS 26.4974 -84.0714 main 173 101 P_____________ AL091951 26.4974 -84.0714 TS 50 0 14 82
1951272N20274 1951 74 NA GM HOW 1951-10-02 06:00:00 TS 26.6000 -83.3000 55 hurdat_atl main 101 31 O_____________ hurdat_atl AL091951 26.6000 -83.3000 TS 55 0 14 83
1951272N20274 1951 74 NA GM HOW 1951-10-02 09:00:00 TS 26.6656 -82.5700 main 31 11 P_____________ AL091951 26.6656 -82.5700 TS 55 0 13 84
1951272N20274 1951 74 NA GM HOW 1951-10-02 10:00:00 TS 26.7000 -82.3000 55 hurdat_atl main 11 0 O_____________ hurdat_atl AL091951 26.7000 -82.3000 L TS 55 0 16 80
1951272N20274 1951 74 NA NA HOW 1951-10-02 12:00:00 TS 26.8000 -81.7000 45 hurdat_atl main 0 0 O_____________ hurdat_atl AL091951 26.8000 -81.7000 TS 45 0 16 72
1951272N20274 1951 74 NA NA HOW 1951-10-02 15:00:00 TS 27.1156 -80.8636 main 0 0 P_____________ AL091951 27.1156 -80.8636 TS 47 0 16 61
1951272N20274 1951 74 NA NA HOW 1951-10-02 18:00:00 TS 27.6000 -80.1000 50 hurdat_atl main 29 29 O_____________ hurdat_atl AL091951 27.6000 -80.1000 TS 50 0 17 51
1951272N20274 1951 74 NA NA HOW 1951-10-02 21:00:00 TS 28.1619 -79.3844 main 112 112 P_____________ AL091951 28.1619 -79.3844 TS 55 0 17 46
1951272N20274 1951 74 NA NA HOW 1951-10-03 00:00:00 TS 28.8000 -78.7000 60 hurdat_atl main 178 178 O_____________ hurdat_atl AL091951 28.8000 -78.7000 TS 60 0 18 44
1951272N20274 1951 74 NA NA HOW 1951-10-03 03:00:00 TS 29.4427 -77.9552 main 262 262 P_____________ AL091951 29.4427 -77.9552 TS 65 1 18 43
1951272N20274 1951 74 NA NA HOW 1951-10-03 06:00:00 TS 30.1000 -77.3000 70 hurdat_atl main 357 346 O_____________ hurdat_atl AL091951 30.1000 -77.3000 HU 70 1 17 36
1951272N20274 1951 74 NA NA HOW 1951-10-03 09:00:00 TS 30.7945 -76.8246 main 346 312 P_____________ AL091951 30.7945 -76.8246 HU 72 1 15 28
1951272N20274 1951 74 NA NA HOW 1951-10-03 12:00:00 TS 31.4000 -76.5000 75 982 hurdat_atl main 312 282 O_____________ hurdat_atl AL091951 31.4000 -76.5000 HU 75 982 1 11 25
1951272N20274 1951 74 NA NA HOW 1951-10-03 15:00:00 TS 31.7948 -76.2690 main 282 267 P_____________ AL091951 31.7948 -76.2690 HU 77 980 1 8 26
1951272N20274 1951 74 NA NA HOW 1951-10-03 18:00:00 TS 32.1000 -76.1000 80 979 hurdat_atl main 267 250 O_____________ hurdat_atl AL091951 32.1000 -76.1000 HU 80 979 1 7 25
1951272N20274 1951 74 NA NA HOW 1951-10-03 21:00:00 TS 32.4424 -75.9072 main 256 224 P_____________ AL091951 32.4424 -75.9072 HU 82 1 8 26
1951272N20274 1951 74 NA NA HOW 1951-10-04 00:00:00 TS 32.8000 -75.7000 85 hurdat_atl main 224 190 O_____________ hurdat_atl AL091951 32.8000 -75.7000 HU 85 2 8 26
1951272N20274 1951 74 NA NA HOW 1951-10-04 03:00:00 TS 33.1999 -75.4649 main 190 171 P_____________ AL091951 33.1999 -75.4649 HU 85 2 9 28
1951272N20274 1951 74 NA NA HOW 1951-10-04 06:00:00 TS 33.6000 -75.2000 85 hurdat_atl main 171 162 O_____________ hurdat_atl AL091951 33.6000 -75.2000 HU 85 2 9 31
1951272N20274 1951 74 NA NA HOW 1951-10-04 09:00:00 TS 33.9650 -74.9074 main 162 162 P_____________ AL091951 33.9650 -74.9074 HU 85 2 9 35
1951272N20274 1951 74 NA NA HOW 1951-10-04 12:00:00 TS 34.3000 -74.6000 85 hurdat_atl main 169 169 O_____________ hurdat_atl AL091951 34.3000 -74.6000 HU 85 2 8 38
1951272N20274 1951 74 NA NA HOW 1951-10-04 15:00:00 TS 34.6149 -74.2998 main 169 168 P_____________ AL091951 34.6149 -74.2998 HU 82 1 8 39
1951272N20274 1951 74 NA NA HOW 1951-10-04 18:00:00 TS 34.9000 -74.0000 80 975 hurdat_atl main 168 168 O_____________ hurdat_atl AL091951 34.9000 -74.0000 HU 80 975 1 7 42
1951272N20274 1951 74 NA NA HOW 1951-10-04 21:00:00 TS 35.1423 -73.7144 main 180 175 P_____________ AL091951 35.1423 -73.7144 HU 80 1 7 45
1951272N20274 1951 74 NA NA HOW 1951-10-05 00:00:00 TS 35.4000 -73.4000 80 hurdat_atl main 194 194 O_____________ hurdat_atl AL091951 35.4000 -73.4000 HU 80 1 8 44
1951272N20274 1951 74 NA NA HOW 1951-10-05 03:00:00 TS 35.7273 -73.0297 main 225 224 P_____________ AL091951 35.7273 -73.0297 HU 80 1 10 43
1951272N20274 1951 74 NA NA HOW 1951-10-05 06:00:00 TS 36.1000 -72.6000 80 hurdat_atl main 262 262 O_____________ hurdat_atl AL091951 36.1000 -72.6000 HU 80 1 11 44
1951272N20274 1951 74 NA NA HOW 1951-10-05 09:00:00 TS 36.4923 -72.1296 main 314 314 P_____________ AL091951 36.4923 -72.1296 HU 82 1 11 45
1951272N20274 1951 74 NA NA HOW 1951-10-05 12:00:00 TS 36.9000 -71.6000 85 972 hurdat_atl main 344 344 O_____________ hurdat_atl AL091951 36.9000 -71.6000 HU 85 972 2 12 48
1951272N20274 1951 74 NA NA HOW 1951-10-05 15:00:00 TS 37.3074 -71.0148 main 376 376 P_____________ AL091951 37.3074 -71.0148 HU 85 2 12 50
1951272N20274 1951 74 NA NA HOW 1951-10-05 18:00:00 TS 37.7000 -70.4000 85 hurdat_atl main 392 383 O_____________ hurdat_atl AL091951 37.7000 -70.4000 HU 85 2 12 51
1951272N20274 1951 74 NA NA HOW 1951-10-05 21:00:00 TS 38.0567 -69.8288 main 384 364 P_____________ AL091951 38.0567 -69.8288 HU 85 2 12 53
1951272N20274 1951 74 NA NA HOW 1951-10-06 00:00:00 TS 38.4000 -69.2000 85 hurdat_atl main 367 351 O_____________ hurdat_atl AL091951 38.4000 -69.2000 HU 85 2 13 57
1951272N20274 1951 74 NA NA HOW 1951-10-06 03:00:00 TS 38.7565 -68.4742 main 346 344 P_____________ AL091951 38.7565 -68.4742 HU 85 2 14 61
1951272N20274 1951 74 NA NA HOW 1951-10-06 06:00:00 TS 39.1000 -67.6000 85 hurdat_atl main 353 349 O_____________ hurdat_atl AL091951 39.1000 -67.6000 HU 85 2 15 65
1951272N20274 1951 74 NA NA HOW 1951-10-06 09:00:00 TS 39.4020 -66.6919 main 377 377 P_____________ AL091951 39.4020 -66.6919 HU 82 1 18 71
1951272N20274 1951 74 NA NA HOW 1951-10-06 12:00:00 ET 39.7000 -65.4000 80 hurdat_atl main 422 407 O_____________ hurdat_atl AL091951 39.7000 -65.4000 EX 80 -4 25 77
1951272N20274 1951 74 NA NA HOW 1951-10-06 15:00:00 ET 39.9794 -63.4693 main 416 416 P_____________ AL091951 39.9794 -63.4693 EX 77 -4 33 79
1951272N20274 1951 74 NA NA HOW 1951-10-06 18:00:00 ET 40.3000 -61.2000 75 963 hurdat_atl main 489 489 O_____________ hurdat_atl AL091951 40.3000 -61.2000 EX 75 963 -4 34 78
1951272N20274 1951 74 NA NA HOW 1951-10-06 21:00:00 ET 40.7040 -59.0574 main 525 523 P_____________ AL091951 40.7040 -59.0574 EX 75 -4 35 75
1951272N20274 1951 74 NA NA HOW 1951-10-07 00:00:00 ET 41.2000 -56.7000 75 hurdat_atl main 569 546 O_____________ hurdat_atl AL091951 41.2000 -56.7000 EX 75 -4 40 75
1951272N20274 1951 74 NA NA HOW 1951-10-07 03:00:00 ET 41.7280 -53.9228 main 545 503 P_____________ AL091951 41.7280 -53.9228 EX 75 -4 44 76
1951272N20274 1951 74 NA NA HOW 1951-10-07 06:00:00 ET 42.3000 -51.0000 75 hurdat_atl main 508 506 O_____________ hurdat_atl AL091951 42.3000 -51.0000 EX 75 -4 43 75
1951272N20274 1951 74 NA NA HOW 1951-10-07 09:00:00 ET 42.8839 -48.2449 main 568 568 P_____________ AL091951 42.8839 -48.2449 EX 75 -4 42 73
1951272N20274 1951 74 NA NA HOW 1951-10-07 12:00:00 ET 43.5000 -45.5000 75 hurdat_atl main 690 690 O_____________ hurdat_atl AL091951 43.5000 -45.5000 EX 75 -4 42 74
1951272N20274 1951 74 NA NA HOW 1951-10-07 15:00:00 ET 44.0563 -42.6612 main 851 851 P_____________ AL091951 44.0563 -42.6612 EX 75 -4 43 74
1951272N20274 1951 74 NA NA HOW 1951-10-07 18:00:00 ET 44.7000 -39.8000 75 hurdat_atl main 1029 1029 O_____________ hurdat_atl AL091951 44.7000 -39.8000 EX 75 -4 44 72
1951272N20274 1951 74 NA NA HOW 1951-10-07 21:00:00 ET 45.4222 -36.8143 main 1225 1225 P_____________ AL091951 45.4222 -36.8143 EX 75 -4 44 67
1951272N20274 1951 74 NA NA HOW 1951-10-08 00:00:00 ET 46.4000 -34.0000 75 hurdat_atl main 1407 1407 O_____________ hurdat_atl AL091951 46.4000 -34.0000 EX 75 -4 44 58
1951272N20274 1951 74 NA NA HOW 1951-10-08 03:00:00 ET 47.7488 -31.4458 main 1561 1360 P_____________ AL091951 47.7488 -31.4458 EX 75 -4 43 47
1951272N20274 1951 74 NA NA HOW 1951-10-08 06:00:00 ET 49.3000 -29.3000 75 hurdat_atl main 1349 1197 O_____________ hurdat_atl AL091951 49.3000 -29.3000 EX 75 -4 38 40
1951272N20274 1951 74 NA NA HOW 1951-10-08 09:00:00 ET 50.7088 -27.6650 main 1194 1077 P_____________ AL091951 50.7088 -27.6650 EX 75 -4 35 32
1951272N20274 1951 74 NA NA HOW 1951-10-08 12:00:00 ET 52.3000 -26.3000 75 hurdat_atl main 1069 942 O_____________ hurdat_atl AL091951 52.3000 -26.3000 EX 75 -4 40 28
1951272N20274 1951 74 NA NA HOW 1951-10-08 15:00:00 ET 54.3019 -24.5921 main 935 823 P_____________ AL091951 54.3019 -24.5921 EX 75 -4 44 26
1951272N20274 1951 74 NA NA HOW 1951-10-08 18:00:00 ET 56.3000 -23.0000 75 hurdat_atl main 811 648 O_____________ hurdat_atl AL091951 56.3000 -23.0000 EX 75 -4 38 24
1951272N20274 1951 74 NA NA HOW 1951-10-08 21:00:00 ET 57.7443 -21.8326 main 647 477 P_____________ AL091951 57.7443 -21.8326 EX 72 -4 32 20
1951272N20274 1951 74 NA NA HOW 1951-10-09 00:00:00 ET 59.3000 -21.0000 70 hurdat_atl main 466 221 O_____________ hurdat_atl AL091951 59.3000 -21.0000 EX 70 -4 40 12
1951272N20274 1951 74 NA NA HOW 1951-10-09 03:00:00 ET 61.6477 -20.2751 main 210 0 P_____________ AL091951 61.6477 -20.2751 EX 67 -4 47 9
1951272N20274 1951 74 NA NA HOW 1951-10-09 06:00:00 ET 64.0000 -19.5000 65 hurdat_atl main 0 0 O_____________ hurdat_atl AL091951 64.0000 -19.5000 EX 65 -4 40 12
1951272N20274 1951 74 NA NA HOW 1951-10-09 09:00:00 ET 65.6247 -18.4038 main 0 0 P_____________ AL091951 65.6247 -18.4038 EX 62 -4 32 19
1951272N20274 1951 74 NA NA HOW 1951-10-09 12:00:00 ET 67.0000 -17.0000 60 hurdat_atl main 69 69 O_____________ hurdat_atl AL091951 67.0000 -17.0000 EX 60 -4 31 24
1951272N20274 1951 74 NA NA HOW 1951-10-09 15:00:00 ET 68.4995 -15.1673 main 232 232 P_____________ AL091951 68.4995 -15.1673 EX 60 -4 33 26
1951272N20274 1951 74 NA NA HOW 1951-10-09 18:00:00 ET 70.0000 -13.0000 60 hurdat_atl main 321 321 O_____________ hurdat_atl AL091951 70.0000 -13.0000 EX 60 -4 34 27
1951272N20274 1951 74 NA NA HOW 1951-10-09 21:00:00 ET 71.5348 -10.6273 main 392 375 P_____________ AL091951 71.5348 -10.6273 EX 57 -4 34 28
1951272N20274 1951 74 NA NA HOW 1951-10-10 00:00:00 ET 73.0000 -8.00000 55 hurdat_atl main 376 374 O_____________ hurdat_atl AL091951 73.0000 -8.00000 EX 55 -4 32 31
1951272N20274 1951 74 NA NA HOW 1951-10-10 03:00:00 ET 74.2841 -5.08494 main 411 411 P_____________ AL091951 74.2841 -5.08494 EX 55 -4 30 33
1951272N20274 1951 74 NA NA HOW 1951-10-10 06:00:00 ET 75.5000 -2.00000 55 hurdat_atl main 451 326 O_____________ hurdat_atl AL091951 75.5000 -2.00000 EX 55 -4 30 32
1951272N20274 1951 74 NA NA HOW 1951-10-10 09:00:00 ET 76.8174 1.29150 main 316 173 P_____________ AL091951 76.8174 1.29150 EX 52 -4 29 33
1951272N20274 1951 74 NA NA HOW 1951-10-10 12:00:00 ET 78.0000 5.00000 50 hurdat_atl main 163 52 O_____________ hurdat_atl AL091951 78.0000 5.00000 EX 50 -4 26 39
1951272N20274 1951 74 NA NA HOW 1951-10-10 15:00:00 ET 78.8724 9.32823 main 45 0 P_____________ AL091951 78.8724 9.32823 EX 50 -4 23 49
1951272N20274 1951 74 NA NA HOW 1951-10-10 18:00:00 ET 79.5000 14.0000 50 hurdat_atl main 0 0 O_____________ hurdat_atl AL091951 79.5000 14.0000 EX 50 -4 21 58
1951272N20274 1951 74 NA NA HOW 1951-10-10 21:00:00 ET 79.9659 18.9271 main 0 0 P_____________ AL091951 79.9659 18.9271 EX 50 -4 19 65
1951272N20274 1951 74 NA NA HOW 1951-10-11 00:00:00 ET 80.3000 24.0000 50 hurdat_atl main 0 0 O_____________ hurdat_atl AL091951 80.3000 24.0000 EX 50 -4 18 71
1951272N20274 1951 74 NA NA HOW 1951-10-11 03:00:00 ET 80.5817 29.3093 main 0 0 P_____________ AL091951 80.5817 29.3093 EX 50 -4 19 74
1951272N20274 1951 74 NI AS HOW 1951-10-11 06:00:00 ET 80.8000 35.0000 main 0 0 O_____________ hurdat_atl AL091951 80.8000 35.0000 EX 50 -4 19 80
1951272N20274 1951 74 NI AS HOW 1951-10-11 09:00:00 ET 80.9243 41.2369 main 0 0 P_____________ AL091951 80.9243 41.2369 EX 50 -4 20 84
1951272N20274 1951 74 NI AS HOW 1951-10-11 12:00:00 ET 81.0000 48.0000 main 0 0 O_____________ hurdat_atl AL091951 81.0000 48.0000 EX 50 -4 22 87
1951272N20274 1951 74 NI AS HOW 1951-10-11 15:00:00 ET 81.0469 55.3386 main 0 0 P_____________ AL091951 81.0469 55.3386 EX 50 -4 23 90
1951272N20274 1951 74 NI AS HOW 1951-10-11 18:00:00 ET 81.0000 63.0000 main 0 O_____________ hurdat_atl AL091951 81.0000 63.0000 EX 50 -4 24 92

About IBTrACS Database

This database is a web-friendly format of International Best Track Archive for Climate Stewardship (IBTrACS), a global best track data archive curated by NOAA dating back to 1842.

Updated: 2021-10-08